sensor_id;sensor_type;location;lat;lon;timestamp;pressure;altitude;pressure_sealevel;temperature;humidity
21863;BME280;11096;51.338;12.524;2023-02-16T00:01:48;100964.63;;;5.38;63.25
21863;BME280;11096;51.338;12.524;2023-02-16T00:04:26;100968.72;;;5.19;63.59
21863;BME280;11096;51.338;12.524;2023-02-16T00:06:52;100973.69;;;5.25;63.43
21863;BME280;11096;51.338;12.524;2023-02-16T00:09:18;100975.34;;;5.26;63.52
21863;BME280;11096;51.338;12.524;2023-02-16T00:11:45;100969.59;;;5.20;63.45
21863;BME280;11096;51.338;12.524;2023-02-16T00:14:29;100966.19;;;4.92;63.80
21863;BME280;11096;51.338;12.524;2023-02-16T00:16:57;100975.22;;;5.04;64.42
21863;BME280;11096;51.338;12.524;2023-02-16T00:19:33;100979.47;;;5.57;63.73
21863;BME280;11096;51.338;12.524;2023-02-16T00:22:00;100974.09;;;5.63;62.70
21863;BME280;11096;51.338;12.524;2023-02-16T00:24:27;100974.00;;;5.66;63.00
21863;BME280;11096;51.338;12.524;2023-02-16T00:26:54;100976.38;;;5.22;63.19
21863;BME280;11096;51.338;12.524;2023-02-16T00:29:24;100973.53;;;5.55;62.76
21863;BME280;11096;51.338;12.524;2023-02-16T00:31:50;100963.25;;;5.28;62.50
21863;BME280;11096;51.338;12.524;2023-02-16T00:37:01;100972.81;;;5.00;63.49
21863;BME280;11096;51.338;12.524;2023-02-16T00:39:27;100970.47;;;4.92;63.69
21863;BME280;11096;51.338;12.524;2023-02-16T00:41:55;100971.00;;;5.02;63.91
21863;BME280;11096;51.338;12.524;2023-02-16T00:44:47;100979.09;;;5.18;63.60
21863;BME280;11096;51.338;12.524;2023-02-16T00:47:22;100975.00;;;5.12;63.44
21863;BME280;11096;51.338;12.524;2023-02-16T00:49:50;100978.31;;;5.15;63.35
21863;BME280;11096;51.338;12.524;2023-02-16T00:52:43;100972.13;;;4.68;63.90
21863;BME280;11096;51.338;12.524;2023-02-16T00:55:16;100971.00;;;5.02;63.66
21863;BME280;11096;51.338;12.524;2023-02-16T00:57:45;100974.09;;;5.13;63.11
21863;BME280;11096;51.338;12.524;2023-02-16T01:00:23;100969.38;;;5.26;62.94
21863;BME280;11096;51.338;12.524;2023-02-16T01:02:51;100970.88;;;5.06;63.39
21863;BME280;11096;51.338;12.524;2023-02-16T01:05:17;100969.03;;;5.10;63.45
21863;BME280;11096;51.338;12.524;2023-02-16T01:07:42;100974.66;;;5.21;63.10
21863;BME280;11096;51.338;12.524;2023-02-16T01:10:28;100973.56;;;5.28;63.08
21863;BME280;11096;51.338;12.524;2023-02-16T01:13:13;100971.28;;;5.19;62.99
21863;BME280;11096;51.338;12.524;2023-02-16T01:15:39;100967.69;;;5.25;62.93
21863;BME280;11096;51.338;12.524;2023-02-16T01:18:05;100965.50;;;5.39;62.57
21863;BME280;11096;51.338;12.524;2023-02-16T01:20:32;100967.16;;;5.40;62.50
21863;BME280;11096;51.338;12.524;2023-02-16T01:23:00;100962.25;;;5.07;62.72
21863;BME280;11096;51.338;12.524;2023-02-16T01:25:25;100956.47;;;5.01;63.01
21863;BME280;11096;51.338;12.524;2023-02-16T01:27:51;100961.03;;;4.92;63.06
21863;BME280;11096;51.338;12.524;2023-02-16T01:30:19;100957.97;;;5.06;63.31
21863;BME280;11096;51.338;12.524;2023-02-16T01:32:45;100960.00;;;4.97;63.06
21863;BME280;11096;51.338;12.524;2023-02-16T01:35:19;100954.97;;;4.93;62.82
21863;BME280;11096;51.338;12.524;2023-02-16T01:37:44;100957.44;;;4.70;62.82
21863;BME280;11096;51.338;12.524;2023-02-16T01:40:35;100966.56;;;4.80;63.38
21863;BME280;11096;51.338;12.524;2023-02-16T01:45:58;100966.25;;;4.63;63.65
21863;BME280;11096;51.338;12.524;2023-02-16T01:48:28;100960.38;;;4.58;63.84
21863;BME280;11096;51.338;12.524;2023-02-16T01:53:30;100954.88;;;4.42;63.68
21863;BME280;11096;51.338;12.524;2023-02-16T01:56:01;100953.28;;;4.38;63.99
21863;BME280;11096;51.338;12.524;2023-02-16T01:58:33;100955.53;;;4.48;64.11
21863;BME280;11096;51.338;12.524;2023-02-16T02:03:29;100954.22;;;4.35;64.57
21863;BME280;11096;51.338;12.524;2023-02-16T02:06:18;100956.19;;;4.55;64.82
21863;BME280;11096;51.338;12.524;2023-02-16T02:08:53;100952.16;;;4.46;64.63
21863;BME280;11096;51.338;12.524;2023-02-16T02:11:26;100954.03;;;4.69;64.53
21863;BME280;11096;51.338;12.524;2023-02-16T02:16:24;100945.28;;;4.75;64.14
21863;BME280;11096;51.338;12.524;2023-02-16T02:18:50;100951.41;;;4.71;63.95
21863;BME280;11096;51.338;12.524;2023-02-16T02:21:44;100941.38;;;4.90;63.91
21863;BME280;11096;51.338;12.524;2023-02-16T02:27:24;100943.47;;;4.77;63.69
21863;BME280;11096;51.338;12.524;2023-02-16T02:30:18;100941.38;;;4.62;64.14
21863;BME280;11096;51.338;12.524;2023-02-16T02:41:27;100935.34;;;4.36;64.83
21863;BME280;11096;51.338;12.524;2023-02-16T02:44:17;100936.63;;;4.49;65.15
21863;BME280;11096;51.338;12.524;2023-02-16T02:46:44;100927.88;;;4.27;65.80
21863;BME280;11096;51.338;12.524;2023-02-16T02:49:10;100928.69;;;4.29;65.80
21863;BME280;11096;51.338;12.524;2023-02-16T02:51:35;100933.44;;;4.13;66.15
21863;BME280;11096;51.338;12.524;2023-02-16T02:54:31;100935.94;;;4.44;65.85
21863;BME280;11096;51.338;12.524;2023-02-16T03:00:11;100933.69;;;4.60;65.69
21863;BME280;11096;51.338;12.524;2023-02-16T03:03:23;100939.69;;;4.34;65.90
21863;BME280;11096;51.338;12.524;2023-02-16T03:08:25;100947.53;;;4.84;65.40
21863;BME280;11096;51.338;12.524;2023-02-16T03:10:55;100946.25;;;4.71;65.21
21863;BME280;11096;51.338;12.524;2023-02-16T03:13:57;100951.13;;;4.52;65.66
21863;BME280;11096;51.338;12.524;2023-02-16T03:16:36;100940.41;;;4.38;66.01
21863;BME280;11096;51.338;12.524;2023-02-16T03:19:05;100949.16;;;4.32;66.10
21863;BME280;11096;51.338;12.524;2023-02-16T03:21:51;100941.91;;;4.17;66.40
21863;BME280;11096;51.338;12.524;2023-02-16T03:24:35;100940.00;;;4.23;66.61
21863;BME280;11096;51.338;12.524;2023-02-16T03:27:24;100941.63;;;4.54;66.17
21863;BME280;11096;51.338;12.524;2023-02-16T03:30:09;100936.91;;;4.68;65.54
21863;BME280;11096;51.338;12.524;2023-02-16T03:32:36;100936.06;;;4.68;65.37
21863;BME280;11096;51.338;12.524;2023-02-16T03:35:02;100930.75;;;4.72;65.05
21863;BME280;11096;51.338;12.524;2023-02-16T03:37:27;100937.50;;;4.77;64.99
21863;BME280;11096;51.338;12.524;2023-02-16T03:39:53;100933.56;;;4.65;65.31
21863;BME280;11096;51.338;12.524;2023-02-16T03:42:37;100938.69;;;4.66;65.24
21863;BME280;11096;51.338;12.524;2023-02-16T03:45:03;100935.75;;;4.50;65.62
21863;BME280;11096;51.338;12.524;2023-02-16T03:47:28;100935.41;;;4.61;65.96
21863;BME280;11096;51.338;12.524;2023-02-16T03:49:54;100945.03;;;4.55;65.45
21863;BME280;11096;51.338;12.524;2023-02-16T03:52:19;100942.16;;;4.37;66.10
21863;BME280;11096;51.338;12.524;2023-02-16T03:54:44;100947.63;;;4.55;66.25
21863;BME280;11096;51.338;12.524;2023-02-16T03:57:10;100942.28;;;4.61;66.03
21863;BME280;11096;51.338;12.524;2023-02-16T03:59:35;100946.81;;;4.52;66.39
21863;BME280;11096;51.338;12.524;2023-02-16T04:02:01;100943.28;;;4.57;66.13
21863;BME280;11096;51.338;12.524;2023-02-16T04:04:26;100943.94;;;4.63;65.97
21863;BME280;11096;51.338;12.524;2023-02-16T04:06:51;100943.88;;;4.65;65.88
21863;BME280;11096;51.338;12.524;2023-02-16T04:09:17;100948.41;;;4.57;66.23
21863;BME280;11096;51.338;12.524;2023-02-16T04:11:42;100953.47;;;4.60;66.22
21863;BME280;11096;51.338;12.524;2023-02-16T04:14:26;100949.31;;;4.56;66.31
21863;BME280;11096;51.338;12.524;2023-02-16T04:16:51;100951.47;;;4.41;66.26
21863;BME280;11096;51.338;12.524;2023-02-16T04:19:17;100951.81;;;4.85;66.56
21863;BME280;11096;51.338;12.524;2023-02-16T04:21:42;100945.03;;;5.34;64.74
21863;BME280;11096;51.338;12.524;2023-02-16T04:24:07;100942.97;;;5.44;63.76
21863;BME280;11096;51.338;12.524;2023-02-16T04:26:33;100956.19;;;4.55;64.41
21863;BME280;11096;51.338;12.524;2023-02-16T04:28:58;100943.59;;;5.26;64.53
21863;BME280;11096;51.338;12.524;2023-02-16T04:31:24;100958.81;;;4.54;65.22
21863;BME280;11096;51.338;12.524;2023-02-16T04:33:49;100947.19;;;4.40;65.73
21863;BME280;11096;51.338;12.524;2023-02-16T04:36:15;100947.84;;;4.47;66.05
21863;BME280;11096;51.338;12.524;2023-02-16T04:38:40;100944.22;;;4.26;66.20
21863;BME280;11096;51.338;12.524;2023-02-16T04:41:06;100952.72;;;4.28;66.41
21863;BME280;11096;51.338;12.524;2023-02-16T04:43:31;100944.22;;;4.26;66.30
21863;BME280;11096;51.338;12.524;2023-02-16T04:45:58;100942.38;;;4.29;66.28
21863;BME280;11096;51.338;12.524;2023-02-16T04:48:23;100937.94;;;4.06;66.75
21863;BME280;11096;51.338;12.524;2023-02-16T04:50:49;100933.44;;;3.83;67.49
21863;BME280;11096;51.338;12.524;2023-02-16T04:53:15;100937.50;;;3.91;67.46
21863;BME280;11096;51.338;12.524;2023-02-16T04:55:45;100935.75;;;3.93;67.09
21863;BME280;11096;51.338;12.524;2023-02-16T04:58:11;100934.31;;;3.82;67.47
21863;BME280;11096;51.338;12.524;2023-02-16T05:00:36;100935.16;;;4.13;67.51
21863;BME280;11096;51.338;12.524;2023-02-16T05:03:01;100940.38;;;4.11;67.42
21863;BME280;11096;51.338;12.524;2023-02-16T05:05:27;100935.34;;;3.77;67.66
21863;BME280;11096;51.338;12.524;2023-02-16T05:07:52;100938.91;;;3.71;68.39
21863;BME280;11096;51.338;12.524;2023-02-16T05:10:18;100938.31;;;4.50;68.02
21863;BME280;11096;51.338;12.524;2023-02-16T05:12:43;100932.63;;;4.94;66.30
21863;BME280;11096;51.338;12.524;2023-02-16T05:15:27;100933.00;;;4.83;65.39
21863;BME280;11096;51.338;12.524;2023-02-16T05:17:52;100936.56;;;5.04;65.41
21863;BME280;11096;51.338;12.524;2023-02-16T05:20:18;100943.06;;;5.16;64.74
21863;BME280;11096;51.338;12.524;2023-02-16T05:22:43;100941.25;;;5.20;64.67
21863;BME280;11096;51.338;12.524;2023-02-16T05:25:10;100947.13;;;4.97;64.60
21863;BME280;11096;51.338;12.524;2023-02-16T05:27:35;100945.59;;;5.18;64.52
21863;BME280;11096;51.338;12.524;2023-02-16T05:30:01;100933.94;;;5.32;64.31
21863;BME280;11096;51.338;12.524;2023-02-16T05:32:26;100938.06;;;5.36;63.85
21863;BME280;11096;51.338;12.524;2023-02-16T05:34:52;100940.91;;;5.29;64.05
21863;BME280;11096;51.338;12.524;2023-02-16T05:37:18;100946.38;;;5.45;63.52
21863;BME280;11096;51.338;12.524;2023-02-16T05:39:43;100941.97;;;5.48;63.29
21863;BME280;11096;51.338;12.524;2023-02-16T05:42:09;100940.31;;;5.46;63.36
21863;BME280;11096;51.338;12.524;2023-02-16T05:44:35;100943.00;;;4.66;63.88
21863;BME280;11096;51.338;12.524;2023-02-16T05:47:01;100933.81;;;4.29;65.40
21863;BME280;11096;51.338;12.524;2023-02-16T05:49:26;100920.91;;;4.02;66.15
21863;BME280;11096;51.338;12.524;2023-02-16T05:51:52;100921.50;;;3.81;67.25
21863;BME280;11096;51.338;12.524;2023-02-16T05:54:17;100917.41;;;3.74;67.67
21863;BME280;11096;51.338;12.524;2023-02-16T05:56:49;100912.63;;;3.91;67.98
21863;BME280;11096;51.338;12.524;2023-02-16T05:59:15;100910.06;;;3.91;67.96
21863;BME280;11096;51.338;12.524;2023-02-16T06:01:41;100914.06;;;3.72;68.21
21863;BME280;11096;51.338;12.524;2023-02-16T06:04:08;100918.13;;;3.79;68.75
21863;BME280;11096;51.338;12.524;2023-02-16T06:06:35;100922.31;;;3.83;69.16
21863;BME280;11096;51.338;12.524;2023-02-16T06:09:01;100928.25;;;3.85;68.84
21863;BME280;11096;51.338;12.524;2023-02-16T06:11:26;100937.59;;;3.87;68.72
21863;BME280;11096;51.338;12.524;2023-02-16T06:14:09;100945.31;;;3.87;69.39
21863;BME280;11096;51.338;12.524;2023-02-16T06:16:37;100939.50;;;3.81;69.80
21863;BME280;11096;51.338;12.524;2023-02-16T06:19:03;100944.38;;;3.92;69.31
21863;BME280;11096;51.338;12.524;2023-02-16T06:21:29;100950.34;;;3.92;69.11
21863;BME280;11096;51.338;12.524;2023-02-16T06:23:55;100958.66;;;4.00;68.78
21863;BME280;11096;51.338;12.524;2023-02-16T06:26:21;100955.47;;;3.92;68.70
21863;BME280;11096;51.338;12.524;2023-02-16T06:28:47;100948.72;;;3.88;68.86
21863;BME280;11096;51.338;12.524;2023-02-16T06:31:12;100952.00;;;3.93;68.70
21863;BME280;11096;51.338;12.524;2023-02-16T06:33:38;100949.34;;;3.96;68.55
21863;BME280;11096;51.338;12.524;2023-02-16T06:36:04;100944.13;;;3.99;68.27
21863;BME280;11096;51.338;12.524;2023-02-16T06:38:29;100948.69;;;3.90;68.23
21863;BME280;11096;51.338;12.524;2023-02-16T06:40:55;100943.50;;;3.91;68.24
21863;BME280;11096;51.338;12.524;2023-02-16T06:43:20;100942.41;;;4.00;68.28
21863;BME280;11096;51.338;12.524;2023-02-16T06:45:46;100948.25;;;4.05;68.46
21863;BME280;11096;51.338;12.524;2023-02-16T06:48:12;100940.84;;;4.24;68.17
21863;BME280;11096;51.338;12.524;2023-02-16T06:50:38;100942.19;;;4.07;68.10
21863;BME280;11096;51.338;12.524;2023-02-16T06:53:03;100938.69;;;4.08;68.27
21863;BME280;11096;51.338;12.524;2023-02-16T06:55:29;100941.66;;;4.26;67.90
21863;BME280;11096;51.338;12.524;2023-02-16T06:57:59;100942.28;;;4.04;67.75
21863;BME280;11096;51.338;12.524;2023-02-16T07:00:24;100939.16;;;3.93;68.56
21863;BME280;11096;51.338;12.524;2023-02-16T07:02:50;100934.66;;;4.01;69.22
21863;BME280;11096;51.338;12.524;2023-02-16T07:05:15;100935.03;;;4.17;69.01
21863;BME280;11096;51.338;12.524;2023-02-16T07:07:41;100934.19;;;4.45;69.14
21863;BME280;11096;51.338;12.524;2023-02-16T07:10:07;100941.38;;;4.62;68.48
21863;BME280;11096;51.338;12.524;2023-02-16T07:12:33;100932.47;;;4.72;68.49
21863;BME280;11096;51.338;12.524;2023-02-16T07:14:59;100933.28;;;4.74;68.08
21863;BME280;11096;51.338;12.524;2023-02-16T07:17:24;100930.78;;;5.24;67.50
21863;BME280;11096;51.338;12.524;2023-02-16T07:19:49;100939.63;;;4.64;67.98
21863;BME280;11096;51.338;12.524;2023-02-16T07:22:15;100935.28;;;4.92;68.22
21863;BME280;11096;51.338;12.524;2023-02-16T07:24:41;100939.63;;;4.90;68.30
21863;BME280;11096;51.338;12.524;2023-02-16T07:27:06;100943.44;;;5.05;68.18
21863;BME280;11096;51.338;12.524;2023-02-16T07:29:33;100932.34;;;5.03;67.90
21863;BME280;11096;51.338;12.524;2023-02-16T07:31:58;100942.88;;;5.22;67.83
21863;BME280;11096;51.338;12.524;2023-02-16T07:34:24;100937.22;;;5.36;67.44
21863;BME280;11096;51.338;12.524;2023-02-16T07:36:49;100941.78;;;5.29;67.38
21863;BME280;11096;51.338;12.524;2023-02-16T07:39:15;100933.06;;;5.57;66.95
21863;BME280;11096;51.338;12.524;2023-02-16T07:41:40;100937.44;;;5.55;67.15
21863;BME280;11096;51.338;12.524;2023-02-16T07:44:06;100935.53;;;5.60;66.97
21863;BME280;11096;51.338;12.524;2023-02-16T07:46:32;100941.81;;;5.53;66.71
21863;BME280;11096;51.338;12.524;2023-02-16T07:48:57;100939.09;;;5.56;67.01
21863;BME280;11096;51.338;12.524;2023-02-16T07:51:25;100932.56;;;5.71;66.47
21863;BME280;11096;51.338;12.524;2023-02-16T07:53:51;100933.19;;;5.54;66.69
21863;BME280;11096;51.338;12.524;2023-02-16T07:56:19;100934.63;;;5.61;66.88
21863;BME280;11096;51.338;12.524;2023-02-16T07:58:44;100929.66;;;5.31;66.85
21863;BME280;11096;51.338;12.524;2023-02-16T08:01:12;100926.44;;;5.50;67.16
21863;BME280;11096;51.338;12.524;2023-02-16T08:03:39;100922.88;;;5.54;67.00
21863;BME280;11096;51.338;12.524;2023-02-16T08:06:05;100929.69;;;5.55;66.78
21863;BME280;11096;51.338;12.524;2023-02-16T08:08:31;100928.47;;;5.42;67.01
21863;BME280;11096;51.338;12.524;2023-02-16T08:10:56;100928.00;;;5.79;66.62
21863;BME280;11096;51.338;12.524;2023-02-16T08:13:22;100925.56;;;5.98;65.93
21863;BME280;11096;51.338;12.524;2023-02-16T08:15:47;100921.94;;;6.04;65.60
21863;BME280;11096;51.338;12.524;2023-02-16T08:18:13;100921.66;;;6.11;66.07
21863;BME280;11096;51.338;12.524;2023-02-16T08:20:39;100922.63;;;6.09;65.58
21863;BME280;11096;51.338;12.524;2023-02-16T08:23:05;100926.88;;;5.86;65.76
21863;BME280;11096;51.338;12.524;2023-02-16T08:25:38;100923.13;;;6.62;65.20
21863;BME280;11096;51.338;12.524;2023-02-16T08:28:03;100919.72;;;6.40;64.77
21863;BME280;11096;51.338;12.524;2023-02-16T08:30:31;100914.09;;;6.93;64.79
21863;BME280;11096;51.338;12.524;2023-02-16T08:32:56;100921.34;;;7.26;63.77
21863;BME280;11096;51.338;12.524;2023-02-16T08:35:26;100927.88;;;7.74;63.03
21863;BME280;11096;51.338;12.524;2023-02-16T08:37:51;100921.78;;;7.75;63.14
21863;BME280;11096;51.338;12.524;2023-02-16T08:40:17;100929.38;;;7.99;63.47
21863;BME280;11096;51.338;12.524;2023-02-16T08:42:42;100927.13;;;8.48;61.60
21863;BME280;11096;51.338;12.524;2023-02-16T08:45:08;100926.38;;;8.80;60.12
21863;BME280;11096;51.338;12.524;2023-02-16T08:47:33;100926.59;;;8.76;59.39
21863;BME280;11096;51.338;12.524;2023-02-16T08:50:00;100923.66;;;9.01;59.63
21863;BME280;11096;51.338;12.524;2023-02-16T08:52:26;100924.34;;;9.05;59.97
21863;BME280;11096;51.338;12.524;2023-02-16T08:54:52;100939.06;;;9.21;59.15
21863;BME280;11096;51.338;12.524;2023-02-16T08:57:18;100928.84;;;9.52;58.15
21863;BME280;11096;51.338;12.524;2023-02-16T08:59:43;100925.66;;;9.80;57.75
21863;BME280;11096;51.338;12.524;2023-02-16T09:02:09;100920.72;;;10.23;57.97
21863;BME280;11096;51.338;12.524;2023-02-16T09:04:34;100927.31;;;10.30;56.98
21863;BME280;11096;51.338;12.524;2023-02-16T09:07:00;100924.13;;;11.74;54.15
21863;BME280;11096;51.338;12.524;2023-02-16T09:09:26;100919.91;;;13.47;48.76
21863;BME280;11096;51.338;12.524;2023-02-16T09:11:51;100917.41;;;16.49;44.97
21863;BME280;11096;51.338;12.524;2023-02-16T09:14:17;100907.81;;;18.73;40.62
21863;BME280;11096;51.338;12.524;2023-02-16T09:16:44;100913.34;;;19.84;37.22
21863;BME280;11096;51.338;12.524;2023-02-16T09:19:14;100906.19;;;21.28;34.46
21863;BME280;11096;51.338;12.524;2023-02-16T09:21:41;100896.81;;;22.35;32.14
21863;BME280;11096;51.338;12.524;2023-02-16T09:24:06;100900.22;;;21.52;31.81
21863;BME280;11096;51.338;12.524;2023-02-16T09:26:35;100902.31;;;22.33;32.89
21863;BME280;11096;51.338;12.524;2023-02-16T09:29:08;100904.13;;;21.13;32.96
21863;BME280;11096;51.338;12.524;2023-02-16T09:31:35;100905.63;;;22.84;31.10
21863;BME280;11096;51.338;12.524;2023-02-16T09:34:14;100905.63;;;23.96;29.30
21863;BME280;11096;51.338;12.524;2023-02-16T09:36:40;100907.16;;;24.82;27.97
21863;BME280;11096;51.338;12.524;2023-02-16T09:39:06;100910.22;;;25.83;27.81
21863;BME280;11096;51.338;12.524;2023-02-16T09:44:49;100899.63;;;26.05;26.03
21863;BME280;11096;51.338;12.524;2023-02-16T09:47:22;100904.28;;;23.61;27.47
21863;BME280;11096;51.338;12.524;2023-02-16T09:49:49;100914.56;;;19.89;31.74
21863;BME280;11096;51.338;12.524;2023-02-16T09:52:36;100911.13;;;17.15;36.56
21863;BME280;11096;51.338;12.524;2023-02-16T09:55:07;100910.09;;;16.21;38.86
21863;BME280;11096;51.338;12.524;2023-02-16T10:08:32;100888.38;;;16.30;39.93
21863;BME280;11096;51.338;12.524;2023-02-16T10:11:24;100895.09;;;16.12;40.77
21863;BME280;11096;51.338;12.524;2023-02-16T10:22:29;100892.72;;;23.45;30.92
21863;BME280;11096;51.338;12.524;2023-02-16T10:25:02;100884.72;;;24.47;29.21
21863;BME280;11096;51.338;12.524;2023-02-16T10:27:38;100879.63;;;25.58;27.73
21863;BME280;11096;51.338;12.524;2023-02-16T10:32:53;100878.66;;;26.88;26.38
21863;BME280;11096;51.338;12.524;2023-02-16T10:35:28;100883.19;;;26.01;26.08
21863;BME280;11096;51.338;12.524;2023-02-16T10:38:02;100873.47;;;23.51;27.47
21863;BME280;11096;51.338;12.524;2023-02-16T10:43:55;100879.75;;;22.94;29.67
21863;BME280;11096;51.338;12.524;2023-02-16T10:46:25;100872.13;;;22.09;31.33
21863;BME280;11096;51.338;12.524;2023-02-16T10:48:54;100876.16;;;20.41;33.29
21863;BME280;11096;51.338;12.524;2023-02-16T10:51:22;100876.25;;;18.44;35.30
21863;BME280;11096;51.338;12.524;2023-02-16T10:53:56;100880.47;;;17.56;37.13
21863;BME280;11096;51.338;12.524;2023-02-16T10:59:10;100880.22;;;17.99;37.83
21863;BME280;11096;51.338;12.524;2023-02-16T11:01:39;100880.47;;;17.25;39.16
21863;BME280;11096;51.338;12.524;2023-02-16T11:04:07;100868.97;;;16.95;40.15
21863;BME280;11096;51.338;12.524;2023-02-16T11:06:34;100878.31;;;17.30;39.71
21863;BME280;11096;51.338;12.524;2023-02-16T11:09:01;100871.16;;;17.42;39.40
21863;BME280;11096;51.338;12.524;2023-02-16T11:11:38;100874.47;;;17.44;40.68
21863;BME280;11096;51.338;12.524;2023-02-16T11:14:19;100875.16;;;17.06;39.68
21863;BME280;11096;51.338;12.524;2023-02-16T11:16:45;100872.44;;;16.75;40.35
21863;BME280;11096;51.338;12.524;2023-02-16T11:19:20;100866.09;;;17.50;40.76
21863;BME280;11096;51.338;12.524;2023-02-16T11:21:51;100866.00;;;16.79;40.57
21863;BME280;11096;51.338;12.524;2023-02-16T11:24:35;100863.69;;;17.47;40.39
21863;BME280;11096;51.338;12.524;2023-02-16T11:27:13;100850.03;;;18.03;39.60
21863;BME280;11096;51.338;12.524;2023-02-16T11:29:41;100854.38;;;18.34;38.57
21863;BME280;11096;51.338;12.524;2023-02-16T11:32:08;100844.69;;;19.11;38.33
21863;BME280;11096;51.338;12.524;2023-02-16T11:34:50;100839.50;;;18.52;38.28
21863;BME280;11096;51.338;12.524;2023-02-16T11:37:28;100848.09;;;17.46;39.20
21863;BME280;11096;51.338;12.524;2023-02-16T11:40:02;100840.06;;;17.97;39.52
21863;BME280;11096;51.338;12.524;2023-02-16T11:42:38;100838.72;;;17.53;39.79
21863;BME280;11096;51.338;12.524;2023-02-16T11:45:06;100839.97;;;17.58;40.08
21863;BME280;11096;51.338;12.524;2023-02-16T11:47:40;100835.53;;;18.29;39.41
21863;BME280;11096;51.338;12.524;2023-02-16T21:13:43;100700.59;;;11.27;62.25
21863;BME280;11096;51.338;12.524;2023-02-16T21:16:09;100692.47;;;11.18;62.17
21863;BME280;11096;51.338;12.524;2023-02-16T21:18:36;100698.34;;;11.08;62.15
21863;BME280;11096;51.338;12.524;2023-02-16T21:21:02;100695.13;;;11.17;62.35
21863;BME280;11096;51.338;12.524;2023-02-16T21:23:28;100691.63;;;11.18;62.40
21863;BME280;11096;51.338;12.524;2023-02-16T21:25:58;100688.28;;;11.16;62.50
21863;BME280;11096;51.338;12.524;2023-02-16T21:28:24;100699.91;;;11.10;61.82
21863;BME280;11096;51.338;12.524;2023-02-16T21:30:50;100682.44;;;11.12;62.64
21863;BME280;11096;51.338;12.524;2023-02-16T21:33:15;100686.25;;;11.07;61.86
21863;BME280;11096;51.338;12.524;2023-02-16T21:35:41;100680.69;;;11.13;62.22
21863;BME280;11096;51.338;12.524;2023-02-16T21:38:06;100676.00;;;11.32;61.48
21863;BME280;11096;51.338;12.524;2023-02-16T21:40:32;100673.34;;;11.05;61.95
21863;BME280;11096;51.338;12.524;2023-02-16T21:43:15;100669.72;;;11.08;61.82
21863;BME280;11096;51.338;12.524;2023-02-16T21:45:41;100667.75;;;11.11;61.45
21863;BME280;11096;51.338;12.524;2023-02-16T21:48:08;100667.22;;;11.06;61.95
21863;BME280;11096;51.338;12.524;2023-02-16T21:50:52;100668.44;;;11.01;61.69
21863;BME280;11096;51.338;12.524;2023-02-16T21:53:18;100665.28;;;10.95;61.97
21863;BME280;11096;51.338;12.524;2023-02-16T21:55:43;100662.31;;;10.87;61.88
21863;BME280;11096;51.338;12.524;2023-02-16T21:58:31;100665.84;;;11.01;61.82
21863;BME280;11096;51.338;12.524;2023-02-16T22:00:56;100666.06;;;10.83;62.25
21863;BME280;11096;51.338;12.524;2023-02-16T22:03:24;100662.59;;;10.83;62.29
21863;BME280;11096;51.338;12.524;2023-02-16T22:05:50;100657.59;;;10.80;62.32
21863;BME280;11096;51.338;12.524;2023-02-16T22:08:15;100653.41;;;10.77;62.22
21863;BME280;11096;51.338;12.524;2023-02-16T22:10:42;100649.91;;;10.64;62.34
21863;BME280;11096;51.338;12.524;2023-02-16T22:13:07;100648.50;;;10.72;62.46
21863;BME280;11096;51.338;12.524;2023-02-16T22:15:36;100644.22;;;10.86;62.18
21863;BME280;11096;51.338;12.524;2023-02-16T22:18:05;100643.56;;;10.82;62.42
21863;BME280;11096;51.338;12.524;2023-02-16T22:20:31;100635.34;;;10.61;63.11
21863;BME280;11096;51.338;12.524;2023-02-16T22:22:56;100633.56;;;10.62;63.06
21863;BME280;11096;51.338;12.524;2023-02-16T22:25:22;100636.53;;;10.56;63.22
21863;BME280;11096;51.338;12.524;2023-02-16T22:27:48;100631.50;;;10.81;62.89
21863;BME280;11096;51.338;12.524;2023-02-16T22:30:14;100629.53;;;10.85;62.25
21863;BME280;11096;51.338;12.524;2023-02-16T22:32:40;100617.13;;;10.76;61.88
21863;BME280;11096;51.338;12.524;2023-02-16T22:35:05;100620.84;;;10.71;62.08
21863;BME280;11096;51.338;12.524;2023-02-16T22:37:32;100623.63;;;11.10;61.41
21863;BME280;11096;51.338;12.524;2023-02-16T22:39:57;100620.00;;;10.71;61.38
21863;BME280;11096;51.338;12.524;2023-02-16T22:42:23;100617.41;;;10.57;61.62
21863;BME280;11096;51.338;12.524;2023-02-16T22:44:48;100620.00;;;10.71;62.03
21863;BME280;11096;51.338;12.524;2023-02-16T22:47:13;100621.66;;;10.72;61.72
21863;BME280;11096;51.338;12.524;2023-02-16T22:49:39;100610.00;;;10.36;62.08
21863;BME280;11096;51.338;12.524;2023-02-16T22:52:04;100612.72;;;10.19;62.06
21863;BME280;11096;51.338;12.524;2023-02-16T22:54:30;100612.72;;;10.19;62.13
21863;BME280;11096;51.338;12.524;2023-02-16T22:56:55;100617.19;;;10.02;62.74
21863;BME280;11096;51.338;12.524;2023-02-16T22:59:20;100620.69;;;10.01;63.19
21863;BME280;11096;51.338;12.524;2023-02-16T23:01:46;100617.75;;;10.07;62.70
21863;BME280;11096;51.338;12.524;2023-02-16T23:04:14;100614.81;;;10.28;62.43
21863;BME280;11096;51.338;12.524;2023-02-16T23:06:40;100606.13;;;10.29;62.21
21863;BME280;11096;51.338;12.524;2023-02-16T23:09:10;100608.13;;;10.38;63.08
21863;BME280;11096;51.338;12.524;2023-02-16T23:11:36;100608.13;;;10.38;65.41
21863;BME280;11096;51.338;12.524;2023-02-16T23:14:02;100606.84;;;10.31;66.60
21863;BME280;11096;51.338;12.524;2023-02-16T23:16:28;100605.34;;;10.27;66.07
21863;BME280;11096;51.338;12.524;2023-02-16T23:18:55;100602.53;;;10.16;66.38
21863;BME280;11096;51.338;12.524;2023-02-16T23:21:27;100602.53;;;10.16;66.81